sensor_id;sensor_type;location;lat;lon;timestamp;temperature;humidity
23544;DHT22;11950;51.230;4.012;2022-10-01T00:00:19;13.40;99.90
23544;DHT22;11950;51.230;4.012;2022-10-01T00:02:46;13.50;99.90
23544;DHT22;11950;51.230;4.012;2022-10-01T00:05:12;13.50;99.90
23544;DHT22;11950;51.230;4.012;2022-10-01T00:07:43;13.50;99.90
23544;DHT22;11950;51.230;4.012;2022-10-01T00:10:11;13.50;99.90
23544;DHT22;11950;51.230;4.012;2022-10-01T00:12:38;13.50;99.90
23544;DHT22;11950;51.230;4.012;2022-10-01T00:15:05;13.40;99.90
23544;DHT22;11950;51.230;4.012;2022-10-01T00:17:37;13.50;99.90
23544;DHT22;11950;51.230;4.012;2022-10-01T00:20:04;13.50;99.90
23544;DHT22;11950;51.230;4.012;2022-10-01T00:22:32;13.50;99.90
23544;DHT22;11950;51.230;4.012;2022-10-01T00:24:59;13.50;99.90
23544;DHT22;11950;51.230;4.012;2022-10-01T00:27:26;13.50;99.90
23544;DHT22;11950;51.230;4.012;2022-10-01T00:29:53;13.50;99.90
23544;DHT22;11950;51.230;4.012;2022-10-01T00:32:20;13.50;99.90
23544;DHT22;11950;51.230;4.012;2022-10-01T00:34:46;13.50;99.90
23544;DHT22;11950;51.230;4.012;2022-10-01T00:37:14;13.50;99.90
23544;DHT22;11950;51.230;4.012;2022-10-01T00:39:42;13.60;99.90
23544;DHT22;11950;51.230;4.012;2022-10-01T00:42:17;13.60;99.90
23544;DHT22;11950;51.230;4.012;2022-10-01T00:44:44;13.60;99.90
23544;DHT22;11950;51.230;4.012;2022-10-01T00:47:27;13.60;99.90
23544;DHT22;11950;51.230;4.012;2022-10-01T00:50:30;13.60;99.90
23544;DHT22;11950;51.230;4.012;2022-10-01T00:53:00;13.70;99.90
23544;DHT22;11950;51.230;4.012;2022-10-01T00:55:33;13.60;99.90
23544;DHT22;11950;51.230;4.012;2022-10-01T00:58:02;13.60;99.90
23544;DHT22;11950;51.230;4.012;2022-10-01T01:00:28;13.60;99.90
23544;DHT22;11950;51.230;4.012;2022-10-01T01:02:55;13.60;99.90
23544;DHT22;11950;51.230;4.012;2022-10-01T01:05:22;13.60;99.90
23544;DHT22;11950;51.230;4.012;2022-10-01T01:07:51;13.70;99.90
23544;DHT22;11950;51.230;4.012;2022-10-01T01:10:28;13.70;99.90
23544;DHT22;11950;51.230;4.012;2022-10-01T01:13:10;13.70;99.90
23544;DHT22;11950;51.230;4.012;2022-10-01T01:16:05;13.70;99.90
23544;DHT22;11950;51.230;4.012;2022-10-01T01:19:03;13.70;99.90
23544;DHT22;11950;51.230;4.012;2022-10-01T01:21:45;13.70;99.90
23544;DHT22;11950;51.230;4.012;2022-10-01T01:26:58;13.80;99.90
23544;DHT22;11950;51.230;4.012;2022-10-01T01:29:38;13.70;99.90
23544;DHT22;11950;51.230;4.012;2022-10-01T01:32:28;13.80;99.90
23544;DHT22;11950;51.230;4.012;2022-10-01T01:34:58;13.80;99.90
23544;DHT22;11950;51.230;4.012;2022-10-01T01:37:29;13.80;99.90
23544;DHT22;11950;51.230;4.012;2022-10-01T01:39:59;13.70;99.90
23544;DHT22;11950;51.230;4.012;2022-10-01T01:42:30;13.80;99.90
23544;DHT22;11950;51.230;4.012;2022-10-01T01:44:58;13.80;99.90
23544;DHT22;11950;51.230;4.012;2022-10-01T01:47:27;13.80;99.90
23544;DHT22;11950;51.230;4.012;2022-10-01T01:49:59;13.80;99.90
23544;DHT22;11950;51.230;4.012;2022-10-01T01:52:28;13.80;99.90
23544;DHT22;11950;51.230;4.012;2022-10-01T01:54:55;13.70;99.90
23544;DHT22;11950;51.230;4.012;2022-10-01T01:57:22;13.80;99.90
23544;DHT22;11950;51.230;4.012;2022-10-01T01:59:48;13.90;99.90
23544;DHT22;11950;51.230;4.012;2022-10-01T02:02:19;13.90;99.90
23544;DHT22;11950;51.230;4.012;2022-10-01T02:04:52;13.90;99.90
23544;DHT22;11950;51.230;4.012;2022-10-01T02:10:44;14.00;99.90
23544;DHT22;11950;51.230;4.012;2022-10-01T02:16:28;14.00;99.90
23544;DHT22;11950;51.230;4.012;2022-10-01T02:19:09;14.00;99.90
23544;DHT22;11950;51.230;4.012;2022-10-01T02:22:00;14.00;99.90
23544;DHT22;11950;51.230;4.012;2022-10-01T02:24:32;14.00;99.90
23544;DHT22;11950;51.230;4.012;2022-10-01T02:27:07;14.10;99.90
23544;DHT22;11950;51.230;4.012;2022-10-01T02:29:37;14.10;99.90
23544;DHT22;11950;51.230;4.012;2022-10-01T02:32:04;14.20;99.90
23544;DHT22;11950;51.230;4.012;2022-10-01T02:34:31;14.20;99.90
23544;DHT22;11950;51.230;4.012;2022-10-01T02:36:59;14.20;99.90
23544;DHT22;11950;51.230;4.012;2022-10-01T02:39:28;14.30;99.90
23544;DHT22;11950;51.230;4.012;2022-10-01T02:41:58;14.30;99.90
23544;DHT22;11950;51.230;4.012;2022-10-01T02:44:32;14.30;99.90
23544;DHT22;11950;51.230;4.012;2022-10-01T02:47:10;14.30;99.90
23544;DHT22;11950;51.230;4.012;2022-10-01T02:49:39;14.40;99.90
23544;DHT22;11950;51.230;4.012;2022-10-01T02:52:26;14.40;99.90
23544;DHT22;11950;51.230;4.012;2022-10-01T02:57:30;14.40;99.90
23544;DHT22;11950;51.230;4.012;2022-10-01T03:00:04;14.50;99.90
23544;DHT22;11950;51.230;4.012;2022-10-01T03:02:31;14.50;99.90
23544;DHT22;11950;51.230;4.012;2022-10-01T03:04:58;14.50;99.90
23544;DHT22;11950;51.230;4.012;2022-10-01T03:07:26;14.50;99.90
23544;DHT22;11950;51.230;4.012;2022-10-01T03:09:53;14.60;99.90
23544;DHT22;11950;51.230;4.012;2022-10-01T03:12:19;14.60;99.90
23544;DHT22;11950;51.230;4.012;2022-10-01T03:14:45;14.60;99.90
23544;DHT22;11950;51.230;4.012;2022-10-01T03:17:12;14.60;99.90
23544;DHT22;11950;51.230;4.012;2022-10-01T03:19:39;14.60;99.90
23544;DHT22;11950;51.230;4.012;2022-10-01T03:22:06;14.60;99.90
23544;DHT22;11950;51.230;4.012;2022-10-01T03:24:32;14.60;99.90
23544;DHT22;11950;51.230;4.012;2022-10-01T03:26:59;14.60;99.90
23544;DHT22;11950;51.230;4.012;2022-10-01T03:29:25;14.70;99.90
23544;DHT22;11950;51.230;4.012;2022-10-01T03:31:52;14.70;99.90
23544;DHT22;11950;51.230;4.012;2022-10-01T03:34:18;14.70;99.90
23544;DHT22;11950;51.230;4.012;2022-10-01T03:36:45;14.70;99.90
23544;DHT22;11950;51.230;4.012;2022-10-01T03:39:12;14.70;99.90
23544;DHT22;11950;51.230;4.012;2022-10-01T03:41:39;14.70;99.90
23544;DHT22;11950;51.230;4.012;2022-10-01T03:44:05;14.80;99.90
23544;DHT22;11950;51.230;4.012;2022-10-01T03:46:32;14.70;99.90
23544;DHT22;11950;51.230;4.012;2022-10-01T03:48:58;14.80;99.90
23544;DHT22;11950;51.230;4.012;2022-10-01T03:51:27;14.80;99.90
23544;DHT22;11950;51.230;4.012;2022-10-01T03:53:54;14.80;99.90
23544;DHT22;11950;51.230;4.012;2022-10-01T03:56:21;14.80;99.90
23544;DHT22;11950;51.230;4.012;2022-10-01T03:58:47;14.80;99.90
23544;DHT22;11950;51.230;4.012;2022-10-01T04:01:13;14.80;99.90
23544;DHT22;11950;51.230;4.012;2022-10-01T04:03:39;14.90;99.90
23544;DHT22;11950;51.230;4.012;2022-10-01T04:06:06;14.90;99.90
23544;DHT22;11950;51.230;4.012;2022-10-01T04:08:32;14.90;99.90
23544;DHT22;11950;51.230;4.012;2022-10-01T04:10:58;14.90;99.90
23544;DHT22;11950;51.230;4.012;2022-10-01T04:13:26;14.90;99.90
23544;DHT22;11950;51.230;4.012;2022-10-01T04:15:52;14.90;99.90
23544;DHT22;11950;51.230;4.012;2022-10-01T04:18:18;14.90;99.90
23544;DHT22;11950;51.230;4.012;2022-10-01T04:20:47;15.00;99.90
23544;DHT22;11950;51.230;4.012;2022-10-01T04:23:14;15.00;99.90
23544;DHT22;11950;51.230;4.012;2022-10-01T04:25:40;15.00;99.90
23544;DHT22;11950;51.230;4.012;2022-10-01T04:28:09;15.00;99.90
23544;DHT22;11950;51.230;4.012;2022-10-01T04:30:40;15.00;99.90
23544;DHT22;11950;51.230;4.012;2022-10-01T04:33:08;15.10;99.90
23544;DHT22;11950;51.230;4.012;2022-10-01T04:35:35;15.10;99.90
23544;DHT22;11950;51.230;4.012;2022-10-01T04:38:05;15.10;99.90
23544;DHT22;11950;51.230;4.012;2022-10-01T04:40:34;15.10;99.90
23544;DHT22;11950;51.230;4.012;2022-10-01T04:43:01;15.20;99.90
23544;DHT22;11950;51.230;4.012;2022-10-01T04:45:29;15.10;99.90
23544;DHT22;11950;51.230;4.012;2022-10-01T04:47:55;15.10;99.90
23544;DHT22;11950;51.230;4.012;2022-10-01T04:50:24;15.20;99.90
23544;DHT22;11950;51.230;4.012;2022-10-01T04:52:51;15.20;99.90
23544;DHT22;11950;51.230;4.012;2022-10-01T04:55:20;15.20;99.90
23544;DHT22;11950;51.230;4.012;2022-10-01T04:57:46;15.20;99.90
23544;DHT22;11950;51.230;4.012;2022-10-01T05:00:20;15.10;99.90
23544;DHT22;11950;51.230;4.012;2022-10-01T05:02:48;15.20;99.90
23544;DHT22;11950;51.230;4.012;2022-10-01T05:05:16;15.30;99.90
23544;DHT22;11950;51.230;4.012;2022-10-01T05:07:43;15.30;99.90
23544;DHT22;11950;51.230;4.012;2022-10-01T05:10:18;15.30;99.90
23544;DHT22;11950;51.230;4.012;2022-10-01T05:12:45;15.30;99.90
23544;DHT22;11950;51.230;4.012;2022-10-01T05:15:12;15.30;99.90
23544;DHT22;11950;51.230;4.012;2022-10-01T05:17:38;15.30;99.90
23544;DHT22;11950;51.230;4.012;2022-10-01T05:20:06;15.30;99.90
23544;DHT22;11950;51.230;4.012;2022-10-01T05:22:33;15.30;99.90
23544;DHT22;11950;51.230;4.012;2022-10-01T05:24:59;15.30;99.90
23544;DHT22;11950;51.230;4.012;2022-10-01T05:27:29;15.30;99.90
23544;DHT22;11950;51.230;4.012;2022-10-01T05:29:56;15.30;99.90
23544;DHT22;11950;51.230;4.012;2022-10-01T05:32:22;15.30;99.90
23544;DHT22;11950;51.230;4.012;2022-10-01T05:34:48;15.30;99.90
23544;DHT22;11950;51.230;4.012;2022-10-01T05:37:14;15.40;99.90
23544;DHT22;11950;51.230;4.012;2022-10-01T05:39:40;15.40;99.90
23544;DHT22;11950;51.230;4.012;2022-10-01T05:42:07;15.40;99.90
23544;DHT22;11950;51.230;4.012;2022-10-01T05:44:33;15.40;99.90
23544;DHT22;11950;51.230;4.012;2022-10-01T05:47:12;15.40;99.90
23544;DHT22;11950;51.230;4.012;2022-10-01T05:49:39;15.40;99.90
23544;DHT22;11950;51.230;4.012;2022-10-01T05:52:10;15.40;99.90
23544;DHT22;11950;51.230;4.012;2022-10-01T05:54:37;15.40;99.90
23544;DHT22;11950;51.230;4.012;2022-10-01T05:57:04;15.40;99.90
23544;DHT22;11950;51.230;4.012;2022-10-01T05:59:30;15.40;99.90
23544;DHT22;11950;51.230;4.012;2022-10-01T06:01:57;15.50;99.90
23544;DHT22;11950;51.230;4.012;2022-10-01T06:04:23;15.40;99.90
23544;DHT22;11950;51.230;4.012;2022-10-01T06:06:49;15.50;99.90
23544;DHT22;11950;51.230;4.012;2022-10-01T06:09:15;15.50;99.90
23544;DHT22;11950;51.230;4.012;2022-10-01T06:11:42;15.50;99.90
23544;DHT22;11950;51.230;4.012;2022-10-01T06:14:08;15.50;99.90
23544;DHT22;11950;51.230;4.012;2022-10-01T06:16:34;15.50;99.90
23544;DHT22;11950;51.230;4.012;2022-10-01T06:19:00;15.50;99.90
23544;DHT22;11950;51.230;4.012;2022-10-01T06:21:26;15.50;99.90
23544;DHT22;11950;51.230;4.012;2022-10-01T06:23:53;15.50;99.90
23544;DHT22;11950;51.230;4.012;2022-10-01T06:26:19;15.60;99.90
23544;DHT22;11950;51.230;4.012;2022-10-01T06:28:49;15.60;99.90
23544;DHT22;11950;51.230;4.012;2022-10-01T06:31:16;15.60;99.90
23544;DHT22;11950;51.230;4.012;2022-10-01T06:33:43;15.60;99.90
23544;DHT22;11950;51.230;4.012;2022-10-01T06:36:10;15.60;99.90
23544;DHT22;11950;51.230;4.012;2022-10-01T06:38:36;15.60;99.90
23544;DHT22;11950;51.230;4.012;2022-10-01T06:41:02;15.60;99.90
23544;DHT22;11950;51.230;4.012;2022-10-01T06:43:32;15.60;99.90
23544;DHT22;11950;51.230;4.012;2022-10-01T06:46:03;15.70;99.90
23544;DHT22;11950;51.230;4.012;2022-10-01T06:48:30;15.60;99.90
23544;DHT22;11950;51.230;4.012;2022-10-01T06:50:57;15.70;99.90
23544;DHT22;11950;51.230;4.012;2022-10-01T06:53:25;15.70;99.90
23544;DHT22;11950;51.230;4.012;2022-10-01T06:55:51;15.80;99.90
23544;DHT22;11950;51.230;4.012;2022-10-01T06:58:20;15.90;99.90
23544;DHT22;11950;51.230;4.012;2022-10-01T07:00:48;16.00;99.90
23544;DHT22;11950;51.230;4.012;2022-10-01T07:03:19;16.10;99.90
23544;DHT22;11950;51.230;4.012;2022-10-01T07:05:47;16.30;99.90
23544;DHT22;11950;51.230;4.012;2022-10-01T07:08:14;16.40;99.90
23544;DHT22;11950;51.230;4.012;2022-10-01T07:10:41;16.50;99.90
23544;DHT22;11950;51.230;4.012;2022-10-01T07:13:18;16.50;99.90
23544;DHT22;11950;51.230;4.012;2022-10-01T07:15:45;16.50;99.90
23544;DHT22;11950;51.230;4.012;2022-10-01T07:18:12;16.60;99.90
23544;DHT22;11950;51.230;4.012;2022-10-01T07:20:39;16.60;99.90
23544;DHT22;11950;51.230;4.012;2022-10-01T07:23:12;16.60;99.90
23544;DHT22;11950;51.230;4.012;2022-10-01T07:25:40;16.60;99.90
23544;DHT22;11950;51.230;4.012;2022-10-01T07:28:08;16.60;99.90
23544;DHT22;11950;51.230;4.012;2022-10-01T07:31:06;16.60;99.90
23544;DHT22;11950;51.230;4.012;2022-10-01T07:33:38;16.60;99.90
23544;DHT22;11950;51.230;4.012;2022-10-01T07:36:06;16.60;99.90
23544;DHT22;11950;51.230;4.012;2022-10-01T07:38:33;16.70;99.90
23544;DHT22;11950;51.230;4.012;2022-10-01T07:41:00;16.80;99.90
23544;DHT22;11950;51.230;4.012;2022-10-01T07:43:31;16.80;99.90
23544;DHT22;11950;51.230;4.012;2022-10-01T07:45:57;16.80;99.90
23544;DHT22;11950;51.230;4.012;2022-10-01T07:48:25;16.80;99.90
23544;DHT22;11950;51.230;4.012;2022-10-01T07:50:52;16.80;99.90
23544;DHT22;11950;51.230;4.012;2022-10-01T07:53:19;16.90;99.90
23544;DHT22;11950;51.230;4.012;2022-10-01T07:55:45;16.90;99.90
23544;DHT22;11950;51.230;4.012;2022-10-01T07:58:12;16.90;99.90
23544;DHT22;11950;51.230;4.012;2022-10-01T08:00:38;16.90;99.90
23544;DHT22;11950;51.230;4.012;2022-10-01T08:03:05;17.00;99.90
23544;DHT22;11950;51.230;4.012;2022-10-01T08:05:33;17.00;99.90
23544;DHT22;11950;51.230;4.012;2022-10-01T08:08:02;17.10;99.90
23544;DHT22;11950;51.230;4.012;2022-10-01T08:10:28;17.10;99.90
23544;DHT22;11950;51.230;4.012;2022-10-01T08:13:06;17.20;99.90
23544;DHT22;11950;51.230;4.012;2022-10-01T08:15:44;17.20;99.90
23544;DHT22;11950;51.230;4.012;2022-10-01T08:18:11;17.20;99.90
23544;DHT22;11950;51.230;4.012;2022-10-01T08:20:37;17.30;99.90
23544;DHT22;11950;51.230;4.012;2022-10-01T08:23:09;17.30;99.90
23544;DHT22;11950;51.230;4.012;2022-10-01T08:25:37;17.30;99.90
23544;DHT22;11950;51.230;4.012;2022-10-01T08:28:05;17.40;99.90
23544;DHT22;11950;51.230;4.012;2022-10-01T08:30:32;17.50;99.90
23544;DHT22;11950;51.230;4.012;2022-10-01T08:33:00;17.50;99.90
23544;DHT22;11950;51.230;4.012;2022-10-01T08:35:27;17.50;99.90
23544;DHT22;11950;51.230;4.012;2022-10-01T08:37:53;17.50;99.90
23544;DHT22;11950;51.230;4.012;2022-10-01T08:40:21;17.60;99.90
23544;DHT22;11950;51.230;4.012;2022-10-01T08:43:05;17.60;99.90
23544;DHT22;11950;51.230;4.012;2022-10-01T08:45:39;17.60;99.90
23544;DHT22;11950;51.230;4.012;2022-10-01T08:50:49;17.70;99.90
23544;DHT22;11950;51.230;4.012;2022-10-01T08:53:32;17.70;99.90
23544;DHT22;11950;51.230;4.012;2022-10-01T08:56:01;17.70;99.90
23544;DHT22;11950;51.230;4.012;2022-10-01T08:58:34;17.70;99.90
23544;DHT22;11950;51.230;4.012;2022-10-01T09:01:05;17.70;99.90
23544;DHT22;11950;51.230;4.012;2022-10-01T09:03:32;17.70;99.90
23544;DHT22;11950;51.230;4.012;2022-10-01T09:06:21;17.70;99.90
23544;DHT22;11950;51.230;4.012;2022-10-01T09:20:24;17.80;99.90
23544;DHT22;11950;51.230;4.012;2022-10-01T09:23:16;17.90;99.90
23544;DHT22;11950;51.230;4.012;2022-10-01T09:25:45;17.90;99.90
23544;DHT22;11950;51.230;4.012;2022-10-01T09:28:15;18.00;99.90
23544;DHT22;11950;51.230;4.012;2022-10-01T09:33:20;18.10;99.90
23544;DHT22;11950;51.230;4.012;2022-10-01T09:36:15;18.10;99.90
23544;DHT22;11950;51.230;4.012;2022-10-01T09:38:47;18.10;99.90
23544;DHT22;11950;51.230;4.012;2022-10-01T09:41:17;18.10;99.90
23544;DHT22;11950;51.230;4.012;2022-10-01T09:43:44;18.10;99.90
23544;DHT22;11950;51.230;4.012;2022-10-01T09:46:14;18.10;99.90
23544;DHT22;11950;51.230;4.012;2022-10-01T09:51:47;18.10;99.90
23544;DHT22;11950;51.230;4.012;2022-10-01T09:55:03;18.20;99.90
23544;DHT22;11950;51.230;4.012;2022-10-01T09:57:37;18.20;99.90
23544;DHT22;11950;51.230;4.012;2022-10-01T10:02:42;18.10;99.90
23544;DHT22;11950;51.230;4.012;2022-10-01T10:10:38;18.20;99.90
23544;DHT22;11950;51.230;4.012;2022-10-01T10:13:13;18.20;99.90
23544;DHT22;11950;51.230;4.012;2022-10-01T10:15:54;18.30;99.90
23544;DHT22;11950;51.230;4.012;2022-10-01T10:18:33;18.40;99.90
23544;DHT22;11950;51.230;4.012;2022-10-01T10:21:16;18.40;99.90
23544;DHT22;11950;51.230;4.012;2022-10-01T10:23:47;18.50;99.90
23544;DHT22;11950;51.230;4.012;2022-10-01T10:26:34;18.60;99.90
23544;DHT22;11950;51.230;4.012;2022-10-01T10:29:05;18.70;99.90
23544;DHT22;11950;51.230;4.012;2022-10-01T10:31:52;18.70;99.90
23544;DHT22;11950;51.230;4.012;2022-10-01T10:34:34;18.70;99.90
23544;DHT22;11950;51.230;4.012;2022-10-01T10:37:09;18.70;99.90
23544;DHT22;11950;51.230;4.012;2022-10-01T10:39:39;18.60;99.90
23544;DHT22;11950;51.230;4.012;2022-10-01T10:42:06;18.60;99.90
23544;DHT22;11950;51.230;4.012;2022-10-01T10:44:35;18.70;99.90
23544;DHT22;11950;51.230;4.012;2022-10-01T10:47:09;18.70;99.90
23544;DHT22;11950;51.230;4.012;2022-10-01T10:54:56;18.90;99.90
23544;DHT22;11950;51.230;4.012;2022-10-01T10:57:29;19.00;99.90
23544;DHT22;11950;51.230;4.012;2022-10-01T11:02:22;19.10;99.90
23544;DHT22;11950;51.230;4.012;2022-10-01T11:04:52;19.10;99.90
23544;DHT22;11950;51.230;4.012;2022-10-01T11:07:22;19.20;99.90
23544;DHT22;11950;51.230;4.012;2022-10-01T11:12:36;19.30;99.90
23544;DHT22;11950;51.230;4.012;2022-10-01T11:15:10;19.30;99.90
23544;DHT22;11950;51.230;4.012;2022-10-01T11:26:39;19.50;99.90
23544;DHT22;11950;51.230;4.012;2022-10-01T11:29:25;19.50;99.90
23544;DHT22;11950;51.230;4.012;2022-10-01T11:37:13;19.50;99.90
23544;DHT22;11950;51.230;4.012;2022-10-01T11:39:47;19.50;99.90
23544;DHT22;11950;51.230;4.012;2022-10-01T11:42:18;19.50;99.90
23544;DHT22;11950;51.230;4.012;2022-10-01T11:44:53;19.60;99.90
23544;DHT22;11950;51.230;4.012;2022-10-01T11:47:32;19.60;99.90
23544;DHT22;11950;51.230;4.012;2022-10-01T11:50:11;19.60;99.90
23544;DHT22;11950;51.230;4.012;2022-10-01T11:52:59;19.60;99.90
23544;DHT22;11950;51.230;4.012;2022-10-01T11:55:33;19.60;99.90
23544;DHT22;11950;51.230;4.012;2022-10-01T12:01:27;19.70;99.90
23544;DHT22;11950;51.230;4.012;2022-10-01T12:04:02;19.80;99.90
23544;DHT22;11950;51.230;4.012;2022-10-01T12:06:50;19.80;99.90
23544;DHT22;11950;51.230;4.012;2022-10-01T12:12:02;19.90;99.90
23544;DHT22;11950;51.230;4.012;2022-10-01T12:15:07;19.90;99.90
23544;DHT22;11950;51.230;4.012;2022-10-01T12:17:47;20.00;99.90
23544;DHT22;11950;51.230;4.012;2022-10-01T12:20:35;19.90;99.90
23544;DHT22;11950;51.230;4.012;2022-10-01T12:23:06;19.90;99.90
23544;DHT22;11950;51.230;4.012;2022-10-01T12:28:21;19.70;99.90
23544;DHT22;11950;51.230;4.012;2022-10-01T12:30:54;19.70;99.90
23544;DHT22;11950;51.230;4.012;2022-10-01T12:44:38;19.50;99.90
23544;DHT22;11950;51.230;4.012;2022-10-01T12:47:31;19.50;99.90
23544;DHT22;11950;51.230;4.012;2022-10-01T12:50:15;19.50;99.90
23544;DHT22;11950;51.230;4.012;2022-10-01T12:55:47;19.40;99.90
23544;DHT22;11950;51.230;4.012;2022-10-01T12:58:36;19.40;99.90
23544;DHT22;11950;51.230;4.012;2022-10-01T13:01:28;19.30;99.90
23544;DHT22;11950;51.230;4.012;2022-10-01T13:14:39;19.30;99.90
23544;DHT22;11950;51.230;4.012;2022-10-01T13:18:01;19.30;99.90
23544;DHT22;11950;51.230;4.012;2022-10-01T13:23:30;19.30;99.90
23544;DHT22;11950;51.230;4.012;2022-10-01T13:30:59;19.30;99.90
23544;DHT22;11950;51.230;4.012;2022-10-01T13:33:30;19.30;99.90
23544;DHT22;11950;51.230;4.012;2022-10-01T13:36:02;19.30;99.90
23544;DHT22;11950;51.230;4.012;2022-10-01T13:38:40;19.30;99.90
23544;DHT22;11950;51.230;4.012;2022-10-01T13:41:22;19.40;99.90
23544;DHT22;11950;51.230;4.012;2022-10-01T13:46:35;19.40;99.90
23544;DHT22;11950;51.230;4.012;2022-10-01T13:49:27;19.40;99.90
23544;DHT22;11950;51.230;4.012;2022-10-01T13:51:55;19.30;99.90
23544;DHT22;11950;51.230;4.012;2022-10-01T13:57:08;19.10;99.90
23544;DHT22;11950;51.230;4.012;2022-10-01T13:59:36;18.90;99.90
23544;DHT22;11950;51.230;4.012;2022-10-01T14:02:41;18.70;99.90
23544;DHT22;11950;51.230;4.012;2022-10-01T14:05:26;18.50;99.90
23544;DHT22;11950;51.230;4.012;2022-10-01T14:11:00;18.30;99.90
23544;DHT22;11950;51.230;4.012;2022-10-01T14:13:48;18.20;99.90
23544;DHT22;11950;51.230;4.012;2022-10-01T14:16:40;18.20;99.90
23544;DHT22;11950;51.230;4.012;2022-10-01T14:19:08;18.20;99.90
23544;DHT22;11950;51.230;4.012;2022-10-01T14:21:44;18.20;99.90
23544;DHT22;11950;51.230;4.012;2022-10-01T14:24:19;18.30;99.90
23544;DHT22;11950;51.230;4.012;2022-10-01T14:29:40;18.30;99.90
23544;DHT22;11950;51.230;4.012;2022-10-01T14:37:49;18.40;99.90
23544;DHT22;11950;51.230;4.012;2022-10-01T14:40:21;18.40;99.90
23544;DHT22;11950;51.230;4.012;2022-10-01T14:43:02;18.30;99.90
23544;DHT22;11950;51.230;4.012;2022-10-01T14:45:35;18.20;99.90
23544;DHT22;11950;51.230;4.012;2022-10-01T14:48:04;18.20;99.90
23544;DHT22;11950;51.230;4.012;2022-10-01T14:50:36;18.20;99.90
23544;DHT22;11950;51.230;4.012;2022-10-01T14:53:03;18.10;99.90
23544;DHT22;11950;51.230;4.012;2022-10-01T14:55:30;18.10;99.90
23544;DHT22;11950;51.230;4.012;2022-10-01T14:57:57;18.20;99.90
23544;DHT22;11950;51.230;4.012;2022-10-01T15:00:26;18.20;99.90
23544;DHT22;11950;51.230;4.012;2022-10-01T15:03:12;18.30;99.90
23544;DHT22;11950;51.230;4.012;2022-10-01T15:05:41;18.20;99.90
23544;DHT22;11950;51.230;4.012;2022-10-01T15:11:07;18.20;99.90
23544;DHT22;11950;51.230;4.012;2022-10-01T15:13:40;18.20;99.90
23544;DHT22;11950;51.230;4.012;2022-10-01T15:16:12;18.20;99.90
23544;DHT22;11950;51.230;4.012;2022-10-01T15:21:55;18.10;99.90
23544;DHT22;11950;51.230;4.012;2022-10-01T15:26:52;18.10;99.90
23544;DHT22;11950;51.230;4.012;2022-10-01T15:29:19;18.00;99.90
23544;DHT22;11950;51.230;4.012;2022-10-01T15:31:47;18.00;99.90
23544;DHT22;11950;51.230;4.012;2022-10-01T15:34:18;18.00;99.90
23544;DHT22;11950;51.230;4.012;2022-10-01T15:36:46;18.00;99.90
23544;DHT22;11950;51.230;4.012;2022-10-01T15:39:35;18.00;99.90
23544;DHT22;11950;51.230;4.012;2022-10-01T15:47:49;17.90;99.90
23544;DHT22;11950;51.230;4.012;2022-10-01T15:50:33;17.90;99.90
23544;DHT22;11950;51.230;4.012;2022-10-01T15:53:14;17.90;99.90
23544;DHT22;11950;51.230;4.012;2022-10-01T15:55:47;17.80;99.90
23544;DHT22;11950;51.230;4.012;2022-10-01T15:58:21;17.80;99.90
23544;DHT22;11950;51.230;4.012;2022-10-01T16:06:06;17.70;99.90
23544;DHT22;11950;51.230;4.012;2022-10-01T16:08:44;17.70;99.90
23544;DHT22;11950;51.230;4.012;2022-10-01T16:11:17;17.60;99.90
23544;DHT22;11950;51.230;4.012;2022-10-01T16:13:46;17.60;99.90
23544;DHT22;11950;51.230;4.012;2022-10-01T16:18:48;17.60;99.90
23544;DHT22;11950;51.230;4.012;2022-10-01T16:21:19;17.50;99.90
23544;DHT22;11950;51.230;4.012;2022-10-01T16:23:48;17.50;99.90
23544;DHT22;11950;51.230;4.012;2022-10-01T16:26:31;17.50;99.90
23544;DHT22;11950;51.230;4.012;2022-10-01T16:29:18;17.40;99.90
23544;DHT22;11950;51.230;4.012;2022-10-01T16:31:44;17.40;99.90
23544;DHT22;11950;51.230;4.012;2022-10-01T16:34:12;17.40;99.90
23544;DHT22;11950;51.230;4.012;2022-10-01T16:36:39;17.30;99.90
23544;DHT22;11950;51.230;4.012;2022-10-01T16:39:05;17.30;99.90
23544;DHT22;11950;51.230;4.012;2022-10-01T16:41:32;17.20;99.90
23544;DHT22;11950;51.230;4.012;2022-10-01T16:44:00;17.10;99.90
23544;DHT22;11950;51.230;4.012;2022-10-01T16:46:27;17.00;99.90
23544;DHT22;11950;51.230;4.012;2022-10-01T16:48:53;17.00;99.90
23544;DHT22;11950;51.230;4.012;2022-10-01T16:51:19;16.90;99.90
23544;DHT22;11950;51.230;4.012;2022-10-01T16:53:47;16.80;99.90
23544;DHT22;11950;51.230;4.012;2022-10-01T16:56:14;16.80;99.90
23544;DHT22;11950;51.230;4.012;2022-10-01T16:58:41;16.70;99.90
23544;DHT22;11950;51.230;4.012;2022-10-01T17:01:10;16.70;99.90
23544;DHT22;11950;51.230;4.012;2022-10-01T17:03:38;16.70;99.90
23544;DHT22;11950;51.230;4.012;2022-10-01T17:06:04;16.60;99.90
23544;DHT22;11950;51.230;4.012;2022-10-01T17:08:30;16.60;99.90
23544;DHT22;11950;51.230;4.012;2022-10-01T17:10:59;16.50;99.90
23544;DHT22;11950;51.230;4.012;2022-10-01T17:13:28;16.50;99.90
23544;DHT22;11950;51.230;4.012;2022-10-01T17:15:55;16.40;99.90
23544;DHT22;11950;51.230;4.012;2022-10-01T17:18:21;16.40;99.90
23544;DHT22;11950;51.230;4.012;2022-10-01T17:20:47;16.30;99.90
23544;DHT22;11950;51.230;4.012;2022-10-01T17:23:16;16.30;99.90
23544;DHT22;11950;51.230;4.012;2022-10-01T17:25:42;16.20;99.90
23544;DHT22;11950;51.230;4.012;2022-10-01T17:28:15;16.20;99.90
23544;DHT22;11950;51.230;4.012;2022-10-01T17:30:43;16.20;99.90
23544;DHT22;11950;51.230;4.012;2022-10-01T17:33:13;16.10;99.90
23544;DHT22;11950;51.230;4.012;2022-10-01T17:35:45;16.10;99.90
23544;DHT22;11950;51.230;4.012;2022-10-01T17:38:11;16.10;99.90
23544;DHT22;11950;51.230;4.012;2022-10-01T17:40:39;16.00;99.90
23544;DHT22;11950;51.230;4.012;2022-10-01T17:43:09;15.90;99.90
23544;DHT22;11950;51.230;4.012;2022-10-01T17:45:35;15.90;99.90
23544;DHT22;11950;51.230;4.012;2022-10-01T17:48:01;15.90;99.90
23544;DHT22;11950;51.230;4.012;2022-10-01T17:50:28;15.80;99.90
23544;DHT22;11950;51.230;4.012;2022-10-01T17:52:54;15.80;99.90
23544;DHT22;11950;51.230;4.012;2022-10-01T17:55:20;15.70;99.90
23544;DHT22;11950;51.230;4.012;2022-10-01T17:57:48;15.70;99.90
23544;DHT22;11950;51.230;4.012;2022-10-01T18:00:15;15.70;99.90
23544;DHT22;11950;51.230;4.012;2022-10-01T18:02:41;15.70;99.90
23544;DHT22;11950;51.230;4.012;2022-10-01T18:05:08;15.60;99.90
23544;DHT22;11950;51.230;4.012;2022-10-01T18:07:37;15.60;99.90
23544;DHT22;11950;51.230;4.012;2022-10-01T18:10:04;15.50;99.90
23544;DHT22;11950;51.230;4.012;2022-10-01T18:12:31;15.50;99.90
23544;DHT22;11950;51.230;4.012;2022-10-01T18:14:59;15.50;99.90
23544;DHT22;11950;51.230;4.012;2022-10-01T18:17:25;15.40;99.90
23544;DHT22;11950;51.230;4.012;2022-10-01T18:19:51;15.40;99.90